EW3302 Borlange SE current weather conditions

sailwx.info

Wind from 098

Air temperature 12.8° C
Dewpoint 12.3° C

Last reported at 2020-Jul-15 01:55 UTC.
Time now 2020-Jul-15 02:55 UTC

Location: N 60°30' E 015°26'.
View on Google Maps.

See reports from other nearby stations

  
Tides and Currents Weather Stations Pressure Air Temp Water Temp Dewpoint Dewpoint Depression Visibility Wind Speed Wind Dir Waves Ship Positions
date/time (UTC)wind fromknots sea level pressurealtimeterstation pressurevisibilityair tempwater tempwave heightnotes
2020-Jul-15 02:35 112 12.8
2020-Jul-15 02:25 123 0 gusting 4 12.8
2020-Jul-15 02:15 117 12.8
2020-Jul-15 02:05 127 12.8
2020-Jul-15 01:55 098 12.8
2020-Jul-15 01:45 130 12.8
2020-Jul-15 01:35 122 12.8
2020-Jul-15 01:25 126 12.2
2020-Jul-15 01:15 117 12.8
2020-Jul-15 01:05 123 0 gusting 4 12.2
2020-Jul-15 00:55 132 0 gusting 5 12.8
2020-Jul-15 00:45 133 0 gusting 4 12.8
2020-Jul-15 00:35 138 12.2
2020-Jul-15 00:25 100 12.2
2020-Jul-15 00:15 111 12.2
2020-Jul-15 00:05 108 12.2
2020-Jul-14 23:55 126 12.2
2020-Jul-14 23:45 095 12.2
2020-Jul-14 23:35 076 12.2
2020-Jul-14 23:25 123 12.2
2020-Jul-14 23:15 109 12.2
2020-Jul-14 23:05 116 0 gusting 4 12.2
2020-Jul-14 22:55 118 0 gusting 4 12.2
2020-Jul-14 22:45 097 12.2
2020-Jul-14 22:35 121 12.2
2020-Jul-14 22:25 105 12.2
2020-Jul-14 22:15 092 12.2
2020-Jul-14 22:05 102 12.2
2020-Jul-14 21:55 112 0 gusting 5 12.2
2020-Jul-14 21:45 099 12.2
2020-Jul-14 21:35 104 12.2
2020-Jul-14 21:25 12.2
2020-Jul-14 21:15 104 12.2
2020-Jul-14 21:05 098 0 gusting 4 12.2
2020-Jul-14 20:55 096 12.2
2020-Jul-14 20:45 091 12.2
2020-Jul-14 20:35 12.2
2020-Jul-14 20:25 12.2
2020-Jul-14 20:15 12.2
2020-Jul-14 20:05 131 12.2
2020-Jul-14 19:55 12.2
2020-Jul-14 19:45 109 12.2
2020-Jul-14 19:35 106 12.2
2020-Jul-14 19:25 120 12.2
2020-Jul-14 19:15 12.2
2020-Jul-14 19:05 12.2
2020-Jul-14 18:55 12.2
2020-Jul-14 18:45 12.2
2020-Jul-14 18:35 12.2
2020-Jul-14 18:25 12.8
2020-Jul-14 18:15 155 12.8
2020-Jul-14 18:05 195 12.8
2020-Jul-14 17:55 162 1 gusting 4 12.8
2020-Jul-14 17:45 152 1 gusting 5 12.8
2020-Jul-14 17:35 137 13.3
2020-Jul-14 17:25 13.3
2020-Jul-14 14:05
2020-Jul-14 13:25
2020-Jul-14 13:15
2020-Jul-14 13:05
2020-Jul-14 12:35 329 13.3
2020-Jul-14 12:25 333 13.3
2020-Jul-14 12:15 316 13.3
2020-Jul-14 12:05 310 13.3
2020-Jul-14 11:55
2020-Jul-14 11:45
2020-Jul-14 11:35
2020-Jul-14 11:25
2020-Jul-14 11:15
2020-Jul-14 11:05
2020-Jul-14 10:55
2020-Jul-14 10:45
2020-Jul-14 10:35
2020-Jul-14 10:25
2020-Jul-14 10:15
2020-Jul-14 10:05
2020-Jul-14 09:55
2020-Jul-14 09:45
2020-Jul-14 09:35
2020-Jul-14 09:25
2020-Jul-14 09:15 15.0
2020-Jul-14 09:05 15.0
2020-Jul-14 08:55 199 1 15.0
2020-Jul-14 08:45 15.6
2020-Jul-14 08:35 15.6
2020-Jul-14 08:25 15.6
2020-Jul-14 08:15 048 15.6
2020-Jul-14 08:05 113 15.0
2020-Jul-14 07:55 103 13.9
2020-Jul-14 07:45 130 13.3
2020-Jul-14 07:35 131 12.8
2020-Jul-14 07:25 132 0 12.8
2020-Jul-14 07:15 12.8
2020-Jul-14 07:05 12.2
2020-Jul-14 06:55 12.2
2020-Jul-14 06:45 12.2
2020-Jul-14 06:35 12.2
2020-Jul-14 06:25 12.2
2020-Jul-14 06:15
2020-Jul-14 06:05
2020-Jul-14 05:55
2020-Jul-14 05:45
2020-Jul-14 05:35
2020-Jul-14 05:25
2020-Jul-14 05:15 10.0
2020-Jul-14 05:05 10.0
2020-Jul-14 04:55 9.4
2020-Jul-14 04:45 207 9.4
2020-Jul-14 04:35 209 8.9
2020-Jul-14 04:25 8.9
2020-Jul-14 04:15 8.3
2020-Jul-14 04:05 8.3
2020-Jul-14 03:55 8.3
2020-Jul-14 03:45 7.8
2020-Jul-14 03:35 7.8
2020-Jul-14 03:25 7.8
2020-Jul-14 03:15 7.2
2020-Jul-14 03:05 6.7
2020-Jul-14 02:55 6.7
2020-Jul-14 02:45 6.7
2020-Jul-14 02:35 6.7
2020-Jul-14 02:25 319 0 gusting 2 6.1
2020-Jul-14 02:15 6.1
2020-Jul-14 02:05 6.1
2020-Jul-14 01:55 324 6.1
2020-Jul-14 01:45 6.1
2020-Jul-14 01:35 6.1
2020-Jul-14 01:25 6.1
2020-Jul-14 01:15 5.6
2020-Jul-14 01:05 6.1
2020-Jul-14 00:55 6.1
2020-Jul-14 00:45 6.1
2020-Jul-14 00:35 6.1
2020-Jul-14 00:25 6.1
2020-Jul-14 00:15 6.1
2020-Jul-14 00:05 318 6.7
2020-Jul-13 23:55 6.7
2020-Jul-13 23:52 6.7
2020-Jul-13 23:35 6.7
2020-Jul-13 23:25 6.7
2020-Jul-13 23:15 7.2
2020-Jul-13 23:05 7.2
2020-Jul-13 22:55 7.2
2020-Jul-13 22:45 7.2
2020-Jul-13 22:35 7.8
2020-Jul-13 22:25 7.8
2020-Jul-13 22:15 320 7.8
2020-Jul-13 22:05 320 7.8
2020-Jul-13 22:03 8.3
2020-Jul-13 21:45 359 8.3
2020-Jul-13 21:35 359 8.9
2020-Jul-13 21:25 8.9
2020-Jul-13 21:15 9.4
2020-Jul-13 21:05 10.0
2020-Jul-13 20:55 10.0
2020-Jul-13 20:45 10.6
2020-Jul-13 20:35 359 10.6
2020-Jul-13 20:25 11.1
2020-Jul-13 20:15 11.1
2020-Jul-13 20:05 11.1
2020-Jul-13 19:55 11.7
2020-Jul-13 19:45 12.2
2020-Jul-13 19:35 319 12.2
2020-Jul-13 19:25 12.8
2020-Jul-13 19:15 13.3
2020-Jul-13 19:05 321 13.9
2020-Jul-13 18:55 319 14.4
2020-Jul-13 18:45 320 15.0
2020-Jul-13 18:35 319 15.6
2020-Jul-13 18:25 320 0 gusting 2 16.7
2020-Jul-13 18:15 319 0 gusting 2 17.2
2020-Jul-13 18:05 308 1 gusting 4 17.8
2020-Jul-13 17:55 338 2 gusting 4 17.2
2020-Jul-13 17:45 335 2 gusting 5 17.2
2020-Jul-13 17:35 347 2 gusting 5 17.2
2020-Jul-13 17:25 287 0 gusting 5 16.7
2020-Jul-13 17:15 265 0 gusting 3 16.7
2020-Jul-13 17:05 284 16.7
2020-Jul-13 16:55 286 0 gusting 4 16.7
2020-Jul-13 16:45 305 1 gusting 4 17.2
2020-Jul-13 16:35 288 3 gusting 7 17.2
2020-Jul-13 16:25 318 2 gusting 7 17.2
2020-Jul-13 16:15 330 3 gusting 6 17.2
2020-Jul-13 16:05 297 1 gusting 5 17.2
2020-Jul-13 15:55 276 2 gusting 6 17.2
2020-Jul-13 15:45 289 2 gusting 6 17.2
2020-Jul-13 15:35 268 1 gusting 5 17.2
2020-Jul-13 15:25 299 1 gusting 6 17.2
2020-Jul-13 15:15 282 3 gusting 7 17.2
2020-Jul-13 15:05 254 1 gusting 7 17.2
2020-Jul-13 14:55 284 2 gusting 6 17.2
2020-Jul-13 14:45 313 2 gusting 9 17.2
2020-Jul-13 14:35 277 4 gusting 10 17.8
2020-Jul-13 14:25 277 1 gusting 6 17.2
2020-Jul-13 14:15 288 3 gusting 7 16.7
2020-Jul-13 14:05 303 3 gusting 6 16.7
2020-Jul-13 13:55 303 1 gusting 5 17.2
2020-Jul-13 13:45 316 3 gusting 9 17.2
2020-Jul-13 13:35 330 3 gusting 8 17.2
2020-Jul-13 13:25 334 4 gusting 8 16.7
2020-Jul-13 13:15 288 3 gusting 7 17.2
2020-Jul-13 13:05 280 2 gusting 10 17.8
2020-Jul-13 12:55 289 3 gusting 8 17.8
2020-Jul-13 12:45 345 3 gusting 8 17.8
2020-Jul-13 12:36 328 5 gusting 11 17.8
2020-Jul-13 12:25 270 4 gusting 9 17.2
2020-Jul-13 12:15 298 4 gusting 11 17.2
2020-Jul-13 12:05 254 4 gusting 9 16.7
2020-Jul-13 11:55 284 5 gusting 11 16.7
2020-Jul-13 11:45 278 3 gusting 8 17.2
2020-Jul-13 11:35 317 4 gusting 12 17.2
2020-Jul-13 11:25 322 2 gusting 7 16.7
2020-Jul-13 11:15 296 4 gusting 13 16.7
2020-Jul-13 11:05 327 4 gusting 9 16.1
2020-Jul-13 10:55 313 3 gusting 7 16.1
2020-Jul-13 10:45 314 4 gusting 12 16.1
2020-Jul-13 10:35 314 4 gusting 8 15.6
2020-Jul-13 10:25 339 5 gusting 9 16.1
2020-Jul-13 10:15 313 3 gusting 10 15.6
2020-Jul-13 10:05 276 5 gusting 12 16.1
2020-Jul-13 09:55 278 4 gusting 9 15.6
2020-Jul-13 09:45 283 2 gusting 12 15.6
2020-Jul-13 09:35 268 4 gusting 9 15.6
2020-Jul-13 09:25 292 2 gusting 10 15.0
2020-Jul-13 09:15 284 3 gusting 8 15.6
2020-Jul-13 09:05 283 3 gusting 7 15.0
2020-Jul-13 08:55 300 3 gusting 8 15.0
2020-Jul-13 08:45 332 2 gusting 6 15.0
2020-Jul-13 08:35 300 2 gusting 6 15.0
2020-Jul-13 08:25 355 2 gusting 6 15.0
2020-Jul-13 08:15 295 3 gusting 7 14.4
2020-Jul-13 08:05 321 2 gusting 5 13.9
2020-Jul-13 07:55 288 2 gusting 6 13.9
2020-Jul-13 07:45 323 2 gusting 6 13.9
2020-Jul-13 07:35 281 1 gusting 4 13.9
2020-Jul-13 07:25 282 2 gusting 6 13.9
2020-Jul-13 07:15 325 1 gusting 7 14.4
2020-Jul-13 07:05 033 2 gusting 6 14.4
2020-Jul-13 06:55 331 3 gusting 7 13.9
2020-Jul-13 06:45 340 3 gusting 7 13.9
2020-Jul-13 06:35 014 2 gusting 6 13.9
2020-Jul-13 06:25 351 3 gusting 6 13.9
2020-Jul-13 06:15 024 2 gusting 6 13.9
2020-Jul-13 06:05 351 3 gusting 6 13.3
2020-Jul-13 05:55 355 2 gusting 6 12.8
2020-Jul-13 05:45 344 2 gusting 7 12.8
2020-Jul-13 05:35 354 4 gusting 8 12.2
2020-Jul-13 05:25 013 3 gusting 6 12.8
2020-Jul-13 05:15 017 2 gusting 6 12.8
2020-Jul-13 05:05 335 3 gusting 9 12.2
2020-Jul-13 04:55 351 5 gusting 11 12.2
2020-Jul-13 04:45 354 3 gusting 11 12.2
2020-Jul-13 04:35 338 4 gusting 7 11.7
2020-Jul-13 04:25 334 1 gusting 6 11.7
2020-Jul-13 04:15 330 1 gusting 7 11.1
2020-Jul-13 04:05 324 1 gusting 5 10.6
2020-Jul-13 03:55 311 1 gusting 6 10.6
2020-Jul-13 03:45 323 1 gusting 6 10.0
2020-Jul-13 03:35 322 1 gusting 5 9.4
2020-Jul-13 03:25 324 1 gusting 6 8.9
2020-Jul-13 03:15 353 0 gusting 6 8.9
2020-Jul-13 03:05 313 2 gusting 6 8.9
2020-Jul-13 02:55 326 1 gusting 5 8.9
2020-Jul-13 02:45 324 8.9
2020-Jul-13 02:35 8.9
2020-Jul-13 02:25 266 8.9
2020-Jul-13 02:15 306 8.9
2020-Jul-13 02:05 299 0 gusting 4 8.9